createdAt,value
2022-11-09T00:01:03.839Z,2.90
2022-11-09T00:03:33.641Z,3.30
2022-11-09T00:06:02.077Z,3.33
2022-11-09T00:08:30.031Z,2.77
2022-11-09T00:11:04.232Z,3.07
2022-11-09T00:13:32.531Z,3.20
2022-11-09T00:16:02.138Z,2.83
2022-11-09T00:18:30.529Z,2.87
2022-11-09T00:20:59.851Z,3.13
2022-11-09T00:23:27.837Z,3.00
2022-11-09T00:25:55.791Z,3.40
2022-11-09T00:28:23.720Z,2.73
2022-11-09T00:30:51.663Z,2.93
2022-11-09T00:33:19.843Z,3.23
2022-11-09T00:35:48.024Z,2.67
2022-11-09T00:38:17.338Z,2.93
2022-11-09T00:40:45.263Z,3.17
2022-11-09T00:43:13.395Z,2.43
2022-11-09T00:45:41.696Z,2.80
2022-11-09T00:48:10.155Z,2.63
2022-11-09T00:50:38.136Z,2.80
2022-11-09T00:53:06.110Z,3.10
2022-11-09T00:55:35.418Z,2.93
2022-11-09T00:58:03.291Z,3.00
2022-11-09T01:00:31.229Z,3.00
2022-11-09T01:02:59.195Z,3.57
2022-11-09T01:05:27.351Z,4.97
2022-11-09T01:07:55.290Z,5.60
2022-11-09T01:10:23.250Z,5.03
2022-11-09T01:12:53.131Z,5.23
2022-11-09T01:15:21.078Z,4.40
2022-11-09T01:17:49.160Z,3.80
2022-11-09T01:20:17.266Z,3.20
2022-11-09T01:22:45.410Z,3.90
2022-11-09T01:25:13.383Z,3.40
2022-11-09T01:27:41.335Z,3.67
2022-11-09T01:30:11.879Z,3.13
2022-11-09T01:32:39.857Z,3.60
2022-11-09T01:35:08.317Z,2.90
2022-11-09T01:37:36.842Z,2.33
2022-11-09T01:40:05.406Z,3.00
2022-11-09T01:42:37.311Z,3.13
2022-11-09T01:45:27.945Z,2.77
2022-11-09T01:48:01.358Z,3.00
2022-11-09T01:50:35.721Z,3.60
2022-11-09T01:53:07.703Z,3.47
2022-11-09T01:55:36.043Z,2.80
2022-11-09T01:58:06.792Z,2.50
2022-11-09T02:00:39.060Z,2.43
2022-11-09T02:03:10.625Z,2.07
2022-11-09T02:05:41.631Z,2.83
2022-11-09T02:08:11.502Z,2.63
2022-11-09T02:10:44.915Z,2.53
2022-11-09T02:13:15.813Z,2.37
2022-11-09T02:15:45.840Z,3.23
2022-11-09T02:18:14.605Z,4.03
2022-11-09T02:20:49.936Z,4.10
2022-11-09T02:23:18.394Z,3.20
2022-11-09T02:25:50.358Z,4.67
2022-11-09T02:28:19.026Z,4.50
2022-11-09T02:30:50.726Z,3.30
2022-11-09T02:33:18.964Z,5.30
2022-11-09T02:35:48.452Z,4.77
2022-11-09T02:38:16.739Z,4.40
2022-11-09T02:40:49.224Z,3.70
2022-11-09T02:43:19.469Z,4.43
2022-11-09T02:45:47.915Z,3.53
2022-11-09T02:48:15.861Z,3.23
2022-11-09T02:50:44.042Z,3.50
2022-11-09T02:53:13.521Z,2.23
2022-11-09T02:55:41.714Z,2.67
2022-11-09T02:58:09.826Z,2.40
2022-11-09T03:00:37.836Z,2.47
2022-11-09T03:03:06.523Z,2.70
2022-11-09T03:05:34.616Z,2.43
2022-11-09T03:08:03.341Z,3.97
2022-11-09T03:10:32.764Z,3.10
2022-11-09T03:13:00.717Z,2.70
2022-11-09T03:15:28.799Z,2.67
2022-11-09T03:17:57.810Z,2.67
2022-11-09T03:20:26.025Z,2.70
2022-11-09T03:22:58.984Z,2.63
2022-11-09T03:25:27.502Z,2.40
2022-11-09T03:28:00.679Z,3.13
2022-11-09T03:30:29.903Z,2.23
2022-11-09T03:33:01.387Z,3.40
2022-11-09T03:35:29.815Z,2.73
2022-11-09T03:37:58.151Z,3.30
2022-11-09T03:40:26.245Z,2.67
2022-11-09T03:42:54.630Z,3.30
2022-11-09T03:45:24.193Z,2.80
2022-11-09T03:47:52.369Z,2.30
2022-11-09T03:50:20.619Z,3.00
2022-11-09T03:52:49.182Z,3.20
2022-11-09T03:55:17.500Z,2.37
2022-11-09T03:57:46.321Z,3.10
2022-11-09T04:00:17.032Z,2.90
2022-11-09T04:02:46.686Z,2.77
2022-11-09T04:05:15.942Z,3.10
2022-11-09T04:07:48.871Z,3.20
2022-11-09T04:10:17.017Z,3.00
2022-11-09T04:12:45.112Z,2.70
2022-11-09T04:15:13.705Z,3.40
2022-11-09T04:17:41.993Z,3.33
2022-11-09T04:20:12.458Z,3.13
2022-11-09T04:22:40.511Z,3.40
2022-11-09T04:25:09.477Z,3.27
2022-11-09T04:27:37.458Z,3.70
2022-11-09T04:30:06.525Z,3.73
2022-11-09T04:32:34.634Z,3.07
2022-11-09T04:35:03.112Z,3.00
2022-11-09T04:37:32.447Z,3.50
2022-11-09T04:40:00.549Z,3.07
2022-11-09T04:42:28.534Z,3.13
2022-11-09T04:44:56.483Z,3.03
2022-11-09T04:47:24.411Z,3.20
2022-11-09T04:49:52.753Z,2.90
2022-11-09T04:52:20.835Z,3.10
2022-11-09T04:54:50.251Z,3.40
2022-11-09T04:57:18.274Z,3.20
2022-11-09T04:59:46.361Z,3.40
2022-11-09T05:02:14.612Z,3.40
2022-11-09T05:04:42.717Z,3.60
2022-11-09T05:07:10.942Z,3.47
2022-11-09T05:09:39.092Z,3.10
2022-11-09T05:12:09.191Z,2.83
2022-11-09T05:14:38.048Z,3.37
2022-11-09T05:17:06.981Z,3.47
2022-11-09T05:19:35.329Z,2.87
2022-11-09T05:22:23.470Z,3.80
2022-11-09T05:24:51.875Z,3.10
2022-11-09T05:27:21.770Z,3.70
2022-11-09T05:29:49.792Z,2.97
2022-11-09T05:32:17.867Z,3.80
2022-11-09T05:34:45.989Z,3.07
2022-11-09T05:37:14.010Z,3.87
2022-11-09T05:39:42.215Z,3.93
2022-11-09T05:42:10.667Z,3.40
2022-11-09T05:44:40.312Z,3.93
2022-11-09T05:47:08.572Z,4.00
2022-11-09T05:49:36.768Z,3.00
2022-11-09T05:52:04.993Z,3.37
2022-11-09T05:54:33.052Z,3.33
2022-11-09T05:57:02.187Z,4.03
2022-11-09T05:59:30.138Z,4.10
2022-11-09T06:02:00.855Z,3.67
2022-11-09T06:04:28.864Z,3.30
2022-11-09T06:06:57.068Z,3.60
2022-11-09T06:09:29.717Z,4.00
2022-11-09T06:12:00.982Z,4.47
2022-11-09T06:14:29.154Z,4.03
2022-11-09T06:16:57.311Z,3.53
2022-11-09T06:19:26.789Z,3.50
2022-11-09T06:21:54.801Z,3.70
2022-11-09T06:24:22.923Z,3.73
2022-11-09T06:26:50.912Z,3.50
2022-11-09T06:29:19.780Z,4.20
2022-11-09T06:31:49.017Z,4.60
2022-11-09T06:34:17.189Z,4.27
2022-11-09T06:36:46.770Z,5.10
2022-11-09T06:39:14.735Z,4.50
2022-11-09T06:41:47.186Z,4.00
2022-11-09T06:44:16.196Z,4.53
2022-11-09T06:46:44.203Z,3.80
2022-11-09T06:49:12.286Z,3.67
2022-11-09T06:51:40.283Z,3.70
2022-11-09T06:54:09.557Z,5.00
2022-11-09T06:56:37.533Z,3.60
2022-11-09T06:59:05.451Z,4.00
2022-11-09T07:01:33.566Z,3.77
2022-11-09T07:04:01.607Z,3.97
2022-11-09T07:06:29.677Z,4.00
2022-11-09T07:08:57.801Z,4.00
2022-11-09T07:11:27.410Z,3.50
2022-11-09T07:13:57.552Z,4.70
2022-11-09T07:16:26.980Z,4.37
2022-11-09T07:18:55.254Z,4.03
2022-11-09T07:21:23.424Z,4.33
2022-11-09T07:23:51.773Z,4.03
2022-11-09T07:26:20.114Z,4.13
2022-11-09T07:28:49.555Z,3.47
2022-11-09T07:31:17.717Z,3.83
2022-11-09T07:33:45.911Z,4.63
2022-11-09T07:36:19.777Z,4.20
2022-11-09T07:38:49.298Z,4.63
2022-11-09T07:41:17.280Z,4.53
2022-11-09T07:43:45.290Z,4.90
2022-11-09T07:46:14.662Z,5.90
2022-11-09T07:48:42.704Z,5.40
2022-11-09T07:51:11.137Z,6.90
2022-11-09T07:53:39.724Z,5.53
2022-11-09T07:56:08.111Z,5.37
2022-11-09T07:58:36.933Z,5.33
2022-11-09T08:01:08.676Z,5.40
2022-11-09T08:03:38.259Z,6.07
2022-11-09T08:06:06.678Z,5.47
2022-11-09T08:08:34.650Z,4.73
2022-11-09T08:11:02.657Z,4.80
2022-11-09T08:13:34.232Z,3.97
2022-11-09T08:16:02.866Z,5.57
2022-11-09T08:18:32.521Z,4.33
2022-11-09T08:21:05.147Z,5.93
2022-11-09T08:23:33.388Z,5.97
2022-11-09T08:26:04.738Z,6.10
2022-11-09T08:28:33.558Z,4.93
2022-11-09T08:31:03.462Z,4.57
2022-11-09T08:33:34.901Z,5.27
2022-11-09T08:36:10.040Z,5.20
2022-11-09T08:38:38.137Z,5.20
2022-11-09T08:41:12.070Z,5.30
2022-11-09T08:43:41.842Z,5.20
2022-11-09T08:46:09.904Z,5.77
2022-11-09T08:48:38.005Z,5.60
2022-11-09T08:51:09.145Z,5.53
2022-11-09T08:53:37.111Z,5.30
2022-11-09T08:56:07.313Z,4.40
2022-11-09T08:58:35.780Z,5.40
2022-11-09T09:01:12.248Z,5.23
2022-11-09T09:03:47.295Z,5.43
2022-11-09T09:06:16.827Z,4.70
2022-11-09T09:08:44.884Z,5.30
2022-11-09T09:11:13.155Z,5.70
2022-11-09T09:13:43.616Z,5.43
2022-11-09T09:16:13.720Z,6.13
2022-11-09T09:18:41.800Z,5.90
2022-11-09T09:21:11.348Z,6.10
2022-11-09T09:23:40.902Z,6.60
2022-11-09T09:26:11.863Z,7.50
2022-11-09T09:28:40.432Z,5.30
2022-11-09T09:31:08.756Z,6.63
2022-11-09T09:33:37.157Z,7.10
2022-11-09T09:36:05.568Z,5.73
2022-11-09T09:38:33.537Z,6.73
2022-11-09T09:41:04.398Z,6.50
2022-11-09T09:43:42.710Z,5.40
2022-11-09T09:46:19.534Z,6.17
2022-11-09T09:48:52.674Z,5.93
2022-11-09T09:51:29.059Z,4.77
2022-11-09T09:54:01.588Z,5.70
2022-11-09T09:56:35.169Z,4.83
2022-11-09T09:59:12.155Z,4.80
2022-11-09T10:01:42.802Z,5.40
2022-11-09T10:04:18.874Z,5.67
2022-11-09T10:07:04.695Z,5.10
2022-11-09T10:09:44.899Z,5.60
2022-11-09T10:12:24.650Z,5.57
2022-11-09T10:15:10.299Z,6.23
2022-11-09T10:17:45.178Z,3.90
2022-11-09T10:20:26.768Z,4.50
2022-11-09T10:23:08.256Z,4.80
2022-11-09T10:28:42.581Z,4.80
2022-11-09T10:31:20.529Z,4.60
2022-11-09T10:33:53.524Z,6.07
2022-11-09T10:36:26.012Z,7.03
2022-11-09T10:38:57.995Z,6.10
2022-11-09T10:41:32.279Z,5.97
2022-11-09T10:44:02.157Z,6.40
2022-11-09T10:46:30.115Z,6.00
2022-11-09T10:48:58.739Z,6.43
2022-11-09T10:51:36.447Z,5.87
2022-11-09T10:54:17.355Z,5.60
2022-11-09T10:57:05.395Z,5.10
2022-11-09T10:59:44.813Z,5.00
2022-11-09T11:02:45.206Z,5.93
2022-11-09T11:05:31.398Z,5.60
2022-11-09T11:08:12.401Z,5.10
2022-11-09T11:10:40.539Z,5.03
2022-11-09T11:13:24.019Z,4.63
2022-11-09T11:15:53.937Z,4.93
2022-11-09T11:18:24.886Z,4.57
2022-11-09T11:21:16.181Z,5.30
2022-11-09T11:24:03.949Z,4.60
2022-11-09T11:26:38.986Z,5.20
2022-11-09T11:29:16.605Z,4.60
2022-11-09T11:31:46.403Z,4.83
2022-11-09T11:34:32.209Z,3.80
2022-11-09T11:37:25.125Z,4.13
2022-11-09T11:40:02.588Z,4.73
2022-11-09T11:42:47.790Z,4.40
2022-11-09T11:48:32.436Z,5.20
2022-11-09T11:51:08.741Z,4.17
2022-11-09T11:53:55.134Z,5.57
2022-11-09T11:56:29.562Z,5.30
2022-11-09T11:59:26.245Z,4.53
2022-11-09T12:02:09.150Z,3.97
2022-11-09T12:05:14.932Z,4.53
2022-11-09T12:07:56.966Z,5.07
2022-11-09T12:10:43.916Z,4.87
2022-11-09T12:13:23.841Z,4.90
2022-11-09T12:16:00.945Z,3.80
2022-11-09T12:18:41.803Z,4.60
2022-11-09T12:21:17.773Z,4.57
2022-11-09T12:24:02.693Z,4.00
2022-11-09T12:26:45.085Z,4.33
2022-11-09T12:29:20.925Z,4.20
2022-11-09T12:32:01.259Z,4.30
2022-11-09T12:34:33.742Z,3.90
2022-11-09T12:37:08.724Z,3.53
2022-11-09T12:39:40.063Z,3.63
2022-11-09T12:42:15.242Z,3.70
2022-11-09T12:44:48.072Z,3.03
2022-11-09T12:47:22.312Z,4.23
2022-11-09T12:49:50.484Z,3.70
2022-11-09T12:52:26.722Z,4.07
2022-11-09T12:54:55.940Z,4.00
2022-11-09T12:57:27.654Z,3.03
2022-11-09T12:59:57.482Z,3.60
2022-11-09T13:02:30.386Z,3.50
2022-11-09T13:05:00.371Z,4.03
2022-11-09T13:07:49.674Z,3.70
2022-11-09T13:10:39.332Z,4.50
2022-11-09T13:13:25.485Z,3.10
2022-11-09T13:16:11.499Z,4.00
2022-11-09T13:18:52.612Z,3.80
2022-11-09T13:21:38.238Z,3.63
2022-11-09T13:24:56.174Z,3.67
2022-11-09T13:27:41.644Z,3.27
2022-11-09T13:30:51.564Z,3.43
2022-11-09T13:33:24.968Z,3.23
2022-11-09T13:36:14.930Z,4.50
2022-11-09T13:38:43.206Z,3.67
2022-11-09T13:41:42.966Z,3.33
2022-11-09T13:44:24.146Z,4.00
2022-11-09T13:46:54.165Z,4.17
2022-11-09T13:49:45.100Z,3.90
2022-11-09T13:52:46.811Z,3.83
2022-11-09T13:55:25.412Z,5.00
2022-11-09T13:57:56.085Z,3.90
2022-11-09T14:00:27.630Z,4.83
2022-11-09T14:03:02.904Z,4.00
2022-11-09T14:05:33.787Z,3.47
2022-11-09T14:08:05.055Z,4.40
2022-11-09T14:10:54.925Z,4.53
2022-11-09T14:13:49.876Z,4.27
2022-11-09T14:16:27.554Z,3.37
2022-11-09T14:19:09.129Z,3.63
2022-11-09T14:21:44.942Z,3.60
2022-11-09T14:24:18.155Z,3.83
2022-11-09T14:27:17.159Z,3.00
2022-11-09T14:29:51.294Z,3.40
2022-11-09T14:32:33.992Z,3.63
2022-11-09T14:35:20.170Z,3.43
2022-11-09T14:37:48.428Z,4.50
2022-11-09T14:40:19.619Z,4.10
2022-11-09T14:42:53.043Z,3.30
2022-11-09T14:45:21.989Z,4.20
2022-11-09T14:47:56.739Z,3.70
2022-11-09T14:50:27.475Z,3.80
2022-11-09T14:52:57.153Z,4.50
2022-11-09T14:55:27.191Z,4.23
2022-11-09T14:57:56.992Z,4.20
2022-11-09T15:00:28.721Z,3.60
2022-11-09T15:02:58.770Z,4.27
2022-11-09T15:05:35.464Z,3.70
2022-11-09T15:08:04.520Z,3.33
2022-11-09T15:10:32.918Z,3.27
2022-11-09T15:13:04.158Z,3.10
2022-11-09T15:15:34.344Z,3.03
2022-11-09T15:18:03.921Z,3.50
2022-11-09T15:20:34.728Z,3.43
2022-11-09T15:23:05.272Z,3.80
2022-11-09T15:25:36.249Z,3.87
2022-11-09T15:28:21.566Z,3.70
2022-11-09T15:31:07.738Z,4.20
2022-11-09T15:33:48.618Z,3.47
2022-11-09T15:36:25.593Z,4.00
2022-11-09T15:39:03.279Z,3.57
2022-11-09T15:41:31.772Z,5.23
2022-11-09T15:44:00.071Z,4.80
2022-11-09T15:46:30.103Z,5.03
2022-11-09T15:49:07.848Z,5.23
2022-11-09T15:51:35.901Z,5.10
2022-11-09T15:54:04.360Z,4.93
2022-11-09T15:56:32.492Z,4.63
2022-11-09T15:59:00.542Z,5.00
2022-11-09T16:01:30.101Z,4.10
2022-11-09T16:03:59.555Z,4.63
2022-11-09T16:06:27.733Z,4.80
2022-11-09T16:08:55.774Z,6.87
2022-11-09T16:11:23.782Z,4.73
2022-11-09T16:13:52.012Z,4.83
2022-11-09T16:16:19.966Z,6.10
2022-11-09T16:18:48.044Z,5.50
2022-11-09T16:21:18.304Z,5.93
2022-11-09T16:23:46.381Z,5.40
2022-11-09T16:26:16.133Z,4.80
2022-11-09T16:28:44.829Z,4.93
2022-11-09T16:31:14.233Z,5.17
2022-11-09T16:33:42.486Z,6.07
2022-11-09T16:36:14.614Z,5.77
2022-11-09T16:38:46.074Z,5.70
2022-11-09T16:41:15.446Z,4.77
2022-11-09T16:43:45.139Z,5.60
2022-11-09T16:46:14.752Z,4.67
2022-11-09T16:48:42.943Z,4.20
2022-11-09T16:51:14.077Z,4.33
2022-11-09T16:53:43.701Z,4.57
2022-11-09T16:56:11.874Z,4.07
2022-11-09T16:58:39.979Z,4.10
2022-11-09T17:01:11.957Z,3.70
2022-11-09T17:03:41.118Z,5.40
2022-11-09T17:06:11.082Z,4.93
2022-11-09T17:08:39.564Z,4.60
2022-11-09T17:11:11.396Z,5.43
2022-11-09T17:13:39.673Z,5.60
2022-11-09T17:16:10.520Z,5.13
2022-11-09T17:18:38.984Z,6.17
2022-11-09T17:21:10.904Z,4.90
2022-11-09T17:23:39.209Z,5.87
2022-11-09T17:26:09.923Z,5.00
2022-11-09T17:28:42.755Z,5.30
2022-11-09T17:31:17.791Z,5.57
2022-11-09T17:33:47.193Z,4.57
2022-11-09T17:36:29.925Z,4.20
2022-11-09T17:39:06.999Z,3.80
2022-11-09T17:41:42.305Z,4.10
2022-11-09T17:44:11.169Z,4.07
2022-11-09T17:46:40.036Z,4.00
2022-11-09T17:49:10.389Z,3.47
2022-11-09T17:51:38.620Z,3.40
2022-11-09T17:54:07.081Z,3.93
2022-11-09T17:56:36.581Z,5.60
2022-11-09T17:59:06.283Z,4.50
2022-11-09T18:01:41.136Z,4.80
2022-11-09T18:04:13.405Z,4.20
2022-11-09T18:06:41.798Z,4.77
2022-11-09T18:12:03.783Z,4.33
2022-11-09T18:14:32.395Z,4.20
2022-11-09T18:17:01.672Z,4.03
2022-11-09T18:19:30.268Z,5.07
2022-11-09T18:22:02.495Z,5.00
2022-11-09T18:24:34.430Z,5.03
2022-11-09T18:27:04.868Z,5.30
2022-11-09T18:29:33.151Z,4.17
2022-11-09T18:32:01.179Z,4.13
2022-11-09T18:34:29.257Z,5.00
2022-11-09T18:36:57.839Z,4.20
2022-11-09T18:39:28.468Z,4.60
2022-11-09T18:42:13.449Z,4.90
2022-11-09T18:44:44.043Z,5.13
2022-11-09T18:47:13.888Z,4.70
2022-11-09T18:49:42.081Z,5.07
2022-11-09T18:52:10.113Z,4.57
2022-11-09T18:54:38.617Z,5.27
2022-11-09T18:57:06.963Z,4.93
2022-11-09T18:59:37.833Z,4.27
2022-11-09T19:02:09.231Z,5.43
2022-11-09T19:04:37.442Z,5.07
2022-11-09T19:07:05.755Z,4.93
2022-11-09T19:09:39.364Z,5.40
2022-11-09T19:12:09.866Z,5.50
2022-11-09T19:14:41.171Z,6.90
2022-11-09T19:17:13.349Z,6.70
2022-11-09T19:19:42.241Z,6.60
2022-11-09T19:22:16.975Z,7.50
2022-11-09T19:24:49.112Z,8.27
2022-11-09T19:27:17.327Z,7.57
2022-11-09T19:29:51.230Z,7.20
2022-11-09T19:32:20.543Z,6.43
2022-11-09T19:34:48.517Z,6.90
2022-11-09T19:37:16.530Z,7.47
2022-11-09T19:39:47.650Z,7.53
2022-11-09T19:42:15.867Z,7.30
2022-11-09T19:44:43.862Z,6.70
2022-11-09T19:47:12.407Z,7.20
2022-11-09T19:49:41.711Z,8.93
2022-11-09T19:52:09.936Z,7.20
2022-11-09T19:54:38.125Z,6.43
2022-11-09T19:57:15.633Z,6.53
2022-11-09T19:59:43.716Z,5.83
2022-11-09T20:02:12.427Z,5.57
2022-11-09T20:04:43.477Z,5.70
2022-11-09T20:07:12.443Z,6.27
2022-11-09T20:09:40.917Z,6.90
2022-11-09T20:12:30.136Z,6.57
2022-11-09T20:15:02.415Z,5.10
2022-11-09T20:17:30.449Z,5.13
2022-11-09T20:20:00.082Z,5.23
2022-11-09T20:22:31.035Z,6.03
2022-11-09T20:24:59.018Z,5.10
2022-11-09T20:27:35.246Z,5.10
2022-11-09T20:30:03.614Z,5.57
2022-11-09T20:32:32.057Z,5.40
2022-11-09T20:35:01.941Z,4.60
2022-11-09T20:37:30.326Z,5.67
2022-11-09T20:39:58.260Z,4.60
2022-11-09T20:42:29.423Z,5.40
2022-11-09T20:44:58.709Z,4.57
2022-11-09T20:47:57.163Z,4.47
2022-11-09T20:50:20.575Z,5.30
2022-11-09T20:52:48.874Z,5.03
2022-11-09T20:55:16.900Z,4.00
2022-11-09T20:57:44.902Z,4.53
2022-11-09T21:00:13.907Z,5.10
2022-11-09T21:02:43.154Z,5.43
2022-11-09T21:05:11.195Z,4.63
2022-11-09T21:07:40.538Z,4.63
2022-11-09T21:10:09.170Z,5.57
2022-11-09T21:12:37.156Z,5.00
2022-11-09T21:15:06.191Z,6.53
2022-11-09T21:17:34.261Z,4.90
2022-11-09T21:20:02.232Z,6.03
2022-11-09T21:22:44.090Z,4.63
2022-11-09T21:25:31.321Z,5.07
2022-11-09T21:28:17.041Z,4.97
2022-11-09T21:30:45.028Z,4.23
2022-11-09T21:33:13.502Z,5.20
2022-11-09T21:35:41.835Z,5.10
2022-11-09T21:38:09.789Z,4.23
2022-11-09T21:40:39.204Z,5.43
2022-11-09T21:43:07.274Z,5.87
2022-11-09T21:45:35.234Z,5.77
2022-11-09T21:48:03.213Z,6.30
2022-11-09T21:50:31.249Z,5.90
2022-11-09T21:52:59.200Z,4.53
2022-11-09T21:55:27.472Z,4.80
2022-11-09T21:57:56.802Z,5.47
2022-11-09T22:00:24.835Z,5.57
2022-11-09T22:02:53.196Z,6.30
2022-11-09T22:05:23.174Z,5.00
2022-11-09T22:07:51.497Z,5.97
2022-11-09T22:10:19.771Z,5.30
2022-11-09T22:13:05.008Z,5.67
2022-11-09T22:15:51.857Z,5.40
2022-11-09T22:18:33.770Z,5.20
2022-11-09T22:21:01.911Z,4.30
2022-11-09T22:23:29.877Z,3.97
2022-11-09T22:26:01.288Z,4.63
2022-11-09T22:28:29.214Z,3.90
2022-11-09T22:31:01.674Z,4.03
2022-11-09T22:33:30.798Z,3.20
2022-11-09T22:36:01.886Z,3.70
2022-11-09T22:38:30.184Z,3.67
2022-11-09T22:41:01.735Z,4.00
2022-11-09T22:43:30.127Z,3.57
2022-11-09T22:46:04.252Z,3.20
2022-11-09T22:48:32.662Z,2.57
2022-11-09T22:51:00.959Z,2.97
2022-11-09T22:53:29.004Z,2.33
2022-11-09T22:55:58.391Z,2.80
2022-11-09T22:58:27.203Z,2.80
2022-11-09T23:00:55.719Z,3.10
2022-11-09T23:03:25.606Z,3.00
2022-11-09T23:05:53.600Z,2.73
2022-11-09T23:08:21.649Z,2.90
2022-11-09T23:10:55.887Z,2.57
2022-11-09T23:13:24.433Z,2.47
2022-11-09T23:15:56.773Z,2.57
2022-11-09T23:18:43.838Z,2.60
2022-11-09T23:21:12.064Z,2.80
2022-11-09T23:23:40.616Z,3.13
2022-11-09T23:26:09.683Z,2.27
2022-11-09T23:28:38.078Z,2.40
2022-11-09T23:31:08.844Z,2.70
2022-11-09T23:33:38.637Z,1.97
2022-11-09T23:36:08.141Z,1.97
2022-11-09T23:38:37.784Z,2.20
2022-11-09T23:41:07.291Z,1.73
2022-11-09T23:43:35.448Z,2.30
2022-11-09T23:46:04.607Z,1.60
2022-11-09T23:48:32.904Z,1.80
2022-11-09T23:51:03.280Z,2.00
2022-11-09T23:53:32.361Z,1.63
2022-11-09T23:56:04.777Z,2.13
2022-11-09T23:58:33.195Z,1.87
